Willard, New Mexico
Current Conditions -  °F | °C
As of 2:55 AM on Tuesday 21 Oct 2014 (Local Time) from K0E0 Reporting Station
Overcast Overcast  
Wind Chill: 43°   Ceiling: 800
Heat Index: 46°   Visibility: 10mi
Dew Point: 44°   Wind: 5mph
Humidity: 93%   Direction: 20°NNE
Pressure: 30.21"   Gusts: NA
Location:  34.6°N, 106.03°W
Report Text: K0E0 210855Z AUTO 02004KT 10SM OVC008 08/07 A3021 RMK AO2 T00760065
Loading
Personal Weather Stations






























Interactive Weather Map
Tropical Storm Tracking
New forecast layout! Learn more

10-Day Weather Forecast

Advertisements
Track Severe Weather on mobile